KASE/ASE METAR and TAF weather

Enter ICAO airport designator
Station Type Date Time Source
KASE METAR 2021/09/28 04:53 UTC NOAA

KASE 280453Z AUTO 14012G29KT 10SM FEW100 17/00 A3014 RMK AO2 PK WND 16029/0447 SLP079 T01670000


Station Type Date Time Source
KASE Decoded METAR 2021/09/28 04:53 UTC NOAA

ASPEN-PITKIN COUNTY AIRPORT, CO, United States (KASE) 39-14N 106-52W 2354M
Sep 28, 2021 - 12:53 AM EDT / 2021.09.28 0453 UTC
Wind: from the SE (140 degrees) at 14 MPH (12 KT) gusting to 33 MPH (29 KT):0
Visibility: 10 mile(s):0
Sky conditions: mostly clear
Temperature: 62.1 F (16.7 C)
Dew Point: 32.0 F (0.0 C)
Relative Humidity: 32%
Pressure (altimeter): 30.14 in. Hg (1020 hPa)
ob: KASE 280453Z AUTO 14012G29KT 10SM FEW100 17/00 A3014 RMK AO2 PK WND 16029/0447 SLP079 T01670000
cycle: 5

Station Type Date Time Source
KASE TAF 2021/09/27 18:39 UTC NOAA

TAF KASE 271735Z 2718/2818 36005KT P6SM SCT180
FM272000 30008KT P6SM SCT100 BKN200
FM272300 20018G25KT P6SM SCT100 BKN150
FM280300 18006KT P6SM SCT090 OVC250

Example: see airport list